Time;durP1;ratioP1;P1;durP2;ratioP2;P2;SDS_P1;SDS_P2;PMS_P1;PMS_P2;Temp;Humidity;BMP_temperature;BMP_pressure;BME280_temperature;BME280_humidity;BME280_pressure;Samples;Min_cycle;Max_cycle;Signal;HPM_P1;HPM_P2
2022/11/18 08:34:37;;;;;;;;;0.00;0.00;;;;;19.21;44.80;99909.03;5058882;28;45334;-57
2022/11/18 08:37:02;;;;;;;;;1.00;0.75;;;;;19.18;44.64;99904.84;5058665;28;46594;-57
2022/11/18 08:39:27;;;;;;;;;1.25;0.25;;;;;19.21;44.98;99909.03;5058768;28;56646;-58
2022/11/18 08:41:53;;;;;;;;;1.00;1.00;;;;;19.21;44.81;99915.13;5063385;28;58070;-55
2022/11/18 08:44:18;;;;;;;;;0.00;0.00;;;;;19.21;44.35;99922.16;5084217;28;45804;-59
2022/11/18 08:46:44;;;;;;;;;2.00;0.75;;;;;19.21;44.47;99915.13;5076555;28;45467;-58
2022/11/18 08:49:10;;;;;;;;;0.00;0.00;;;;;19.21;44.73;99914.28;5061534;28;45372;-57
2022/11/18 08:51:35;;;;;;;;;0.75;0.75;;;;;19.20;44.49;99913.44;5065479;28;45420;-56
2022/11/18 08:54:00;;;;;;;;;1.00;1.00;;;;;19.20;44.24;99913.44;5071970;28;45264;-57
2022/11/18 08:56:26;;;;;;;;;0.50;0.50;;;;;19.21;44.73;99922.16;5072330;28;45453;-57
2022/11/18 08:58:52;;;;;;;;;0.25;0.00;;;;;19.20;44.35;99918.69;5060513;28;45271;-57
2022/11/18 09:01:17;;;;;;;;;0.50;0.50;;;;;19.19;44.68;99919.63;5059768;28;45336;-57
2022/11/18 09:03:43;;;;;;;;;0.00;0.00;;;;;19.20;44.41;99923.09;5065961;28;45530;-55
2022/11/18 09:06:11;;;;;;;;;0.75;0.75;;;;;19.19;44.61;99918.78;5070674;28;46808;-55
2022/11/18 09:08:37;;;;;;;;;2.00;0.75;;;;;19.18;44.89;99922.34;5077735;28;45323;-56
2022/11/18 09:11:08;;;;;;;;;0.00;0.00;;;;;19.20;44.43;99923.09;5066704;28;45319;-56
2022/11/18 09:13:34;;;;;;;;;0.75;0.75;;;;;19.18;44.41;99919.72;5063628;28;45247;-56
2022/11/18 09:16:00;;;;;;;;;0.25;0.00;;;;;19.16;44.52;99927.72;5077911;28;46191;-56
2022/11/18 09:18:25;;;;;;;;;1.00;1.00;;;;;19.20;44.68;99925.72;5067095;28;45196;-58
2022/11/18 09:20:59;;;;;;;;;1.00;1.00;;;;;19.19;44.35;99938.00;5059149;28;45193;-57
2022/11/18 09:23:25;;;;;;;;;0.00;0.00;;;;;19.18;44.36;99928.47;5041101;28;45316;-56
2022/11/18 09:26:03;;;;;;;;;2.00;1.00;;;;;19.16;44.80;99936.44;5058132;28;45377;-57
2022/11/18 09:28:29;;;;;;;;;0.25;0.25;;;;;19.18;44.48;99941.59;5058019;28;45968;-56
2022/11/18 09:30:55;;;;;;;;;0.25;0.25;;;;;19.16;44.29;99944.31;5060404;28;45343;-57
2022/11/18 09:33:21;;;;;;;;;0.00;0.00;;;;;19.16;44.61;99944.31;5060981;28;45572;-56
2022/11/18 09:35:47;;;;;;;;;0.25;0.25;;;;;19.16;44.53;99940.84;5060270;28;46484;-58
2022/11/18 09:38:13;;;;;;;;;1.00;0.25;;;;;19.16;44.69;99941.69;5067666;28;45427;-56
2022/11/18 09:41:01;;;;;;;;;1.00;1.00;;;;;19.17;44.71;99947.78;5067105;28;45333;-56
2022/11/18 09:43:41;;;;;;;;;1.00;0.00;;;;;19.18;44.74;99951.25;5078260;28;44729;-55
2022/11/18 09:46:38;;;;;;;;;2.00;0.00;;;;;19.16;44.25;99944.31;5066667;28;46086;-56
2022/11/18 09:49:44;;;;;;;;;0.50;0.00;;;;;19.14;44.33;99935.69;5045618;28;45368;-57
2022/11/18 09:52:14;;;;;;;;;0.00;0.00;;;;;19.14;44.52;99940.94;5058380;28;45269;-55
2022/11/18 09:54:40;;;;;;;;;0.50;0.50;;;;;19.15;44.15;99947.03;5065043;28;45513;-56
2022/11/18 09:57:45;;;;;;;;;0.50;0.00;;;;;19.13;44.88;99952.38;5067041;28;46162;-54
2022/11/18 10:00:29;;;;;;;;;0.00;0.00;;;;;19.15;44.69;99953.13;4996614;28;46007;-55
2022/11/18 10:03:05;;;;;;;;;0.50;0.50;;;;;19.13;44.42;99949.75;5053978;28;45354;-56
2022/11/18 10:05:53;;;;;;;;;0.50;0.25;;;;;19.15;44.59;99961.00;5057733;28;45400;-56
2022/11/18 10:08:35;;;;;;;;;0.00;0.00;;;;;19.12;44.51;99953.34;5027054;28;46079;-55
2022/11/18 10:11:12;;;;;;;;;0.75;0.00;;;;;19.14;44.56;99966.38;5056026;28;46313;-57
2022/11/18 10:13:58;;;;;;;;;1.00;1.00;;;;;19.14;44.46;99967.19;5057392;28;45291;-57
2022/11/18 10:16:46;;;;;;;;;0.75;0.00;;;;;19.13;44.67;99967.31;5057480;28;45776;-56
2022/11/18 10:19:35;;;;;;;;;2.00;1.00;;;;;19.14;44.47;99961.13;5057507;28;45461;-56
2022/11/18 10:22:15;;;;;;;;;0.00;0.00;;;;;19.13;44.63;99973.38;5057108;28;45872;-55
2022/11/18 10:25:04;;;;;;;;;0.00;0.00;;;;;19.14;44.67;99971.63;5057532;28;45269;-55
2022/11/18 10:27:41;;;;;;;;;1.00;1.00;;;;;19.14;44.77;99972.44;5056956;28;45252;-56
2022/11/18 10:30:12;;;;;;;;;0.00;0.00;;;;;19.11;44.32;99969.19;5057807;28;46306;-55
2022/11/18 10:32:59;;;;;;;;;3.00;0.00;;;;;19.13;44.16;99970.75;5057006;28;45891;-56
2022/11/18 10:35:37;;;;;;;;;1.00;1.00;;;;;19.11;44.61;99967.41;5057031;28;45308;-56
2022/11/18 10:38:02;;;;;;;;;0.00;0.00;;;;;19.14;44.66;99979.50;5057052;28;45323;-55
2022/11/18 10:40:30;;;;;;;;;0.00;0.00;;;;;19.13;44.19;99980.44;5056733;28;47120;-56
2022/11/18 10:42:55;;;;;;;;;1.00;1.00;;;;;19.13;44.37;99975.19;5056389;28;45220;-56
2022/11/18 10:45:27;;;;;;;;;2.00;0.00;;;;;19.12;44.78;99982.25;5056812;28;45260;-56
2022/11/18 10:47:58;;;;;;;;;1.00;1.00;;;;;19.13;44.67;99977.81;5057174;28;45498;-56
2022/11/18 10:50:36;;;;;;;;;0.50;0.50;;;;;19.13;44.31;99981.28;5056573;28;46586;-56
2022/11/18 10:53:05;;;;;;;;;0.50;0.00;;;;;19.13;44.46;99983.06;5056817;28;45768;-56
2022/11/18 10:55:31;;;;;;;;;1.00;0.00;;;;;19.12;44.50;99981.38;5056940;28;45528;-57
2022/11/18 10:58:15;;;;;;;;;0.00;0.00;;;;;19.10;44.68;99980.63;5057307;28;45323;-56
2022/11/18 11:00:48;;;;;;;;;2.00;1.00;;;;;19.08;44.29;99978.09;5058788;28;46260;-56
2022/11/18 11:03:20;;;;;;;;;1.00;1.00;;;;;19.12;44.67;99973.50;5059404;28;45243;-57
2022/11/18 11:05:45;;;;;;;;;2.00;0.00;;;;;19.08;44.59;99978.09;5067402;28;45314;-57
2022/11/18 11:08:22;;;;;;;;;2.00;0.00;;;;;19.10;44.52;99976.22;5065773;28;45260;-57
2022/11/18 11:10:56;;;;;;;;;0.75;0.00;;;;;19.12;44.65;99984.88;5057526;28;46583;-56
2022/11/18 11:13:25;;;;;;;;;0.00;0.00;;;;;19.12;44.26;99989.25;5058188;28;45433;-56
2022/11/18 11:15:54;;;;;;;;;0.00;0.00;;;;;19.10;44.22;99981.47;5063649;28;45209;-56
2022/11/18 11:18:42;;;;;;;;;0.75;0.00;;;;;19.11;44.69;99987.56;5069653;28;45370;-57
2022/11/18 11:21:19;;;;;;;;;1.50;0.00;;;;;19.11;44.35;99982.31;5071294;28;46171;-56
2022/11/18 11:23:45;;;;;;;;;0.00;0.00;;;;;19.10;44.79;99981.47;5066038;28;45629;-56
2022/11/18 11:26:48;;;;;;;;;2.00;0.50;;;;;19.09;44.73;99985.03;5067371;28;45223;-57
2022/11/18 11:29:22;;;;;;;;;0.00;0.00;;;;;19.11;44.35;99988.44;5065739;28;45292;-56
2022/11/18 11:32:04;;;;;;;;;0.00;0.00;;;;;19.09;44.28;99984.19;5061871;28;46226;-57
2022/11/18 11:34:57;;;;;;;;;0.00;0.00;;;;;19.08;44.28;99988.59;5069100;28;45323;-57
2022/11/18 11:37:45;;;;;;;;;1.00;1.00;;;;;19.09;44.34;99986.81;5074570;28;45176;-56
2022/11/18 11:40:29;;;;;;;;;0.50;0.00;;;;;19.10;44.27;99981.47;5074138;28;45382;-56
2022/11/18 11:43:21;;;;;;;;;0.50;0.50;;;;;19.10;44.35;99981.47;5071086;28;45228;-56
2022/11/18 11:46:21;;;;;;;;;0.75;0.75;;;;;19.07;44.36;99986.91;5058275;28;45339;-56
2022/11/18 11:49:14;;;;;;;;;0.00;0.00;;;;;19.08;44.11;99980.72;5061515;28;45330;-56
2022/11/18 11:51:50;;;;;;;;;0.25;0.25;;;;;19.08;44.44;99987.75;5062713;28;45857;-56
2022/11/18 11:54:39;;;;;;;;;2.00;1.00;;;;;19.09;44.88;99990.31;5062146;28;46061;-55
2022/11/18 11:57:13;;;;;;;;;1.00;1.00;;;;;19.08;44.28;99978.09;5061643;28;45817;-55
2022/11/18 11:59:57;;;;;;;;;1.00;0.00;;;;;19.07;44.28;99986.91;5059770;28;45533;-57
2022/11/18 12:02:48;;;;;;;;;1.00;1.00;;;;;19.07;44.69;99981.66;5056681;28;45331;-55
2022/11/18 12:05:41;;;;;;;;;1.00;0.50;;;;;19.07;44.54;99981.66;5057326;28;46196;-56
2022/11/18 12:08:30;;;;;;;;;1.00;1.00;;;;;19.08;44.66;99982.50;5056542;28;45780;-57
2022/11/18 12:11:06;;;;;;;;;1.50;0.25;;;;;19.07;44.47;99976.41;5055773;28;45395;-57
2022/11/18 12:13:59;;;;;;;;;0.00;0.00;;;;;19.06;44.43;99979.16;5056052;28;45376;-56
2022/11/18 12:16:35;;;;;;;;;2.25;1.00;;;;;19.05;44.43;99975.66;5058160;28;46231;-56
2022/11/18 12:19:11;;;;;;;;;0.75;0.75;;;;;19.08;44.37;99979.88;5071034;28;45304;-56
2022/11/18 12:21:45;;;;;;;;;1.75;1.00;;;;;19.07;44.40;99981.66;5071466;28;45726;-56
2022/11/18 12:24:16;;;;;;;;;2.50;1.00;;;;;19.08;44.74;99977.25;5060341;28;45531;-56
2022/11/18 12:26:43;;;;;;;;;0.00;0.00;;;;;19.08;44.42;99975.47;5058393;28;45417;-56
2022/11/18 12:29:17;;;;;;;;;1.25;0.50;;;;;19.08;44.62;99988.59;5058806;28;45995;-56
2022/11/18 12:31:45;;;;;;;;;3.50;0.00;;;;;19.07;44.14;99989.53;5059183;28;45521;-56
2022/11/18 12:34:41;;;;;;;;;0.00;0.00;;;;;19.07;44.80;99986.91;5059223;28;45453;-55
2022/11/18 12:37:25;;;;;;;;;0.00;0.00;;;;;19.09;44.68;99992.94;5024225;28;47751;-57
2022/11/18 12:39:57;;;;;;;;;1.50;0.00;;;;;19.10;44.54;99992.00;5060786;28;45330;-56
2022/11/18 12:45:44;;;;;;;;;1.00;1.00;;;;;19.09;44.42;99992.06;5059068;28;45252;-56
2022/11/18 12:48:30;;;;;;;;;0.00;0.00;;;;;19.10;44.66;99997.25;5058448;28;46342;-56
2022/11/18 12:51:19;;;;;;;;;1.00;1.00;;;;;19.09;44.29;99995.56;5058531;28;45286;-56
2022/11/18 12:53:50;;;;;;;;;2.00;0.00;;;;;19.08;44.27;99985.13;5055560;28;45472;-55
2022/11/18 12:56:22;;;;;;;;;1.00;1.00;;;;;19.08;44.71;99991.22;5059169;28;45343;-55
2022/11/18 12:58:59;;;;;;;;;1.25;1.25;;;;;19.10;44.26;99985.88;5067173;28;46069;-56
2022/11/18 13:01:30;;;;;;;;;2.00;0.00;;;;;19.10;44.25;99992.00;5071942;28;45843;-56
2022/11/18 13:04:27;;;;;;;;;1.00;1.00;;;;;19.10;44.74;99992.00;5059067;28;45457;-57
2022/11/18 13:06:54;;;;;;;;;1.00;1.00;;;;;19.10;44.74;99992.00;5025343;28;45393;-56
2022/11/18 13:09:23;;;;;;;;;2.00;1.00;;;;;19.09;44.53;99992.94;5059128;28;47165;-57
2022/11/18 13:11:58;;;;;;;;;3.25;1.00;;;;;19.09;44.67;99995.56;5061677;28;45497;-56
2022/11/18 13:17:50;;;;;;;;;0.25;0.25;;;;;19.08;44.64;99999.13;5058584;28;45174;-56
2022/11/18 13:20:34;;;;;;;;;1.00;1.00;;;;;19.08;44.63;100008.75;5061686;28;47222;-56
2022/11/18 13:25:49;;;;;;;;;2.00;0.25;;;;;19.08;44.59;99999.13;5058299;28;45247;-57
2022/11/18 13:28:28;;;;;;;;;0.25;0.00;;;;;19.06;44.50;99995.72;5058373;28;45448;-57
2022/11/18 13:31:16;;;;;;;;;1.50;1.00;;;;;19.09;44.66;99999.94;5058194;28;46504;-57
2022/11/18 13:33:42;;;;;;;;;0.00;0.00;;;;;19.07;44.36;99997.44;5057947;28;45323;-57
2022/11/18 13:36:17;;;;;;;;;1.50;0.50;;;;;19.06;44.62;99992.28;5058498;28;45299;-57
2022/11/18 13:38:57;;;;;;;;;1.25;1.25;;;;;19.07;44.35;100000.06;5058313;28;45429;-57
2022/11/18 13:41:31;;;;;;;;;0.00;0.00;;;;;19.08;44.45;99993.88;5058357;28;46960;-57
2022/11/18 13:44:11;;;;;;;;;0.00;0.00;;;;;19.04;44.75;99987.09;5061038;28;45655;-56
2022/11/18 13:46:39;;;;;;;;;0.75;0.00;;;;;19.06;44.77;99990.47;5071412;28;45366;-57
2022/11/18 13:49:05;;;;;;;;;0.00;0.00;;;;;19.08;44.46;100000.88;5081976;28;45129;-56
2022/11/18 13:51:30;;;;;;;;;1.00;0.00;;;;;19.07;44.16;99997.44;5082558;28;44906;-57
2022/11/18 13:53:56;;;;;;;;;1.00;0.00;;;;;19.07;44.73;99992.16;5075110;28;45355;-57
2022/11/18 13:56:24;;;;;;;;;1.00;1.00;;;;;19.08;44.30;99993.88;5059434;28;45429;-57
2022/11/18 13:59:04;;;;;;;;;1.00;1.00;;;;;19.04;44.58;99987.09;5058730;28;45653;-57
2022/11/18 14:01:32;;;;;;;;;1.75;0.00;;;;;19.08;44.36;99988.59;5061090;28;46252;-56
2022/11/18 14:04:18;;;;;;;;;2.75;0.25;;;;;19.07;44.50;99991.34;5061975;28;45321;-55
2022/11/18 14:06:44;;;;;;;;;2.50;0.25;;;;;19.07;44.84;99994.78;5061304;28;45510;-57
2022/11/18 14:09:24;;;;;;;;;0.50;0.50;;;;;19.06;44.72;99998.38;5061644;28;45406;-57
2022/11/18 14:11:58;;;;;;;;;0.00;0.00;;;;;19.01;44.49;99992.56;5061005;28;45986;-57
2022/11/18 14:14:33;;;;;;;;;1.00;1.00;;;;;19.04;44.37;99994.97;5062824;28;45707;-57
2022/11/18 14:17:19;;;;;;;;;0.00;0.00;;;;;19.05;44.76;100004.56;5064693;28;45193;-56
2022/11/18 14:19:46;;;;;;;;;0.00;0.00;;;;;19.03;44.58;100001.16;5058622;28;45496;-56
2022/11/18 14:22:18;;;;;;;;;1.75;1.00;;;;;19.06;44.54;100013.28;5057309;28;46070;-57
2022/11/18 14:24:56;;;;;;;;;0.00;0.00;;;;;19.05;44.32;100009.81;5057676;28;45760;-56
2022/11/18 14:28:07;;;;;;;;;2.00;1.00;;;;;19.05;44.45;100020.31;5057455;28;45420;-54
2022/11/18 14:30:35;;;;;;;;;0.00;0.00;;;;;19.04;44.66;100017.78;5037046;28;45453;-56
2022/11/18 14:33:16;;;;;;;;;1.00;0.25;;;;;19.03;44.25;100010.84;5074696;28;45292;-55
2022/11/18 14:35:47;;;;;;;;;3.00;1.00;;;;;19.01;44.49;100005.69;5062604;28;45477;-57
2022/11/18 14:38:18;;;;;;;;;0.00;0.00;;;;;19.02;44.64;100009.97;5057182;28;45359;-57
2022/11/18 14:40:44;;;;;;;;;1.75;0.75;;;;;19.02;44.74;100009.97;5059573;28;45296;-56
2022/11/18 14:43:12;;;;;;;;;1.50;0.00;;;;;19.03;44.52;100016.94;5064108;28;46087;-56
2022/11/18 14:45:39;;;;;;;;;1.75;1.00;;;;;19.03;44.26;100013.47;5061575;28;45604;-57
2022/11/18 14:48:06;;;;;;;;;0.00;0.00;;;;;19.02;44.31;100009.16;5067162;28;45411;-58
2022/11/18 14:50:32;;;;;;;;;0.75;0.00;;;;;18.98;44.51;100014.59;5064402;28;45589;-56
2022/11/18 14:52:57;;;;;;;;;0.00;0.00;;;;;19.01;44.05;100018.84;5063459;28;46107;-56
2022/11/18 14:55:22;;;;;;;;;0.00;0.00;;;;;19.00;44.14;100014.50;5066890;28;65612;-57
2022/11/18 14:57:48;;;;;;;;;1.00;1.00;;;;;18.99;44.35;100021.53;5068919;28;44691;-56
2022/11/18 15:00:14;;;;;;;;;0.00;0.00;;;;;19.01;44.51;100024.09;5067747;28;45607;-57
2022/11/18 15:02:40;;;;;;;;;2.00;0.75;;;;;19.03;44.54;100029.22;5059176;28;45418;-56
2022/11/18 15:05:06;;;;;;;;;3.00;0.50;;;;;19.00;44.48;100027.66;5056783;28;45316;-56
2022/11/18 15:07:31;;;;;;;;;2.00;0.00;;;;;18.99;44.47;100031.22;5056853;28;45178;-55
2022/11/18 15:09:57;;;;;;;;;0.75;0.25;;;;;19.01;44.58;100034.59;5059610;28;51690;-56
2022/11/18 15:12:22;;;;;;;;;1.25;0.25;;;;;19.01;44.13;100039.84;5079241;28;45484;-56
2022/11/18 15:14:47;;;;;;;;;0.00;0.00;;;;;19.01;44.37;100045.09;5065256;28;45195;-57
2022/11/18 15:17:13;;;;;;;;;0.75;0.75;;;;;19.00;44.26;100043.41;5057051;28;45261;-57
2022/11/18 15:19:39;;;;;;;;;1.00;0.00;;;;;18.99;44.19;100047.78;5057213;28;45596;-58
2022/11/18 15:22:05;;;;;;;;;1.25;0.25;;;;;18.97;44.71;100051.47;5058009;28;45465;-57
2022/11/18 15:24:30;;;;;;;;;0.25;0.25;;;;;18.98;44.24;100047.91;5059245;28;45488;-58
2022/11/18 15:26:55;;;;;;;;;1.00;1.00;;;;;18.99;44.58;100062.72;5062175;28;45272;-57
2022/11/18 15:29:23;;;;;;;;;0.00;0.00;;;;;18.96;44.61;100058.47;5065741;28;45450;-57
2022/11/18 15:31:49;;;;;;;;;0.00;0.00;;;;;18.99;44.40;100062.72;5059059;28;46341;-62
2022/11/18 15:34:17;;;;;;;;;0.00;0.00;;;;;18.97;44.63;100068.03;5057134;28;45790;-56
2022/11/18 15:36:42;;;;;;;;;0.00;0.00;;;;;18.98;44.18;100074.16;5056718;28;45434;-56
2022/11/18 15:39:09;;;;;;;;;0.00;0.00;;;;;18.97;44.28;100075.09;5057066;28;45272;-55
2022/11/18 15:41:34;;;;;;;;;1.00;1.00;;;;;18.97;44.14;100082.97;5055523;28;45451;-57
2022/11/18 15:44:01;;;;;;;;;1.00;1.00;;;;;18.93;44.76;100081.44;5056757;28;45357;-56
2022/11/18 15:46:28;;;;;;;;;2.00;0.00;;;;;18.94;44.33;100083.16;5057165;28;45378;-56
2022/11/18 15:48:55;;;;;;;;;1.00;0.00;;;;;18.96;44.51;100097.03;5058047;28;45217;-56
2022/11/18 15:51:22;;;;;;;;;0.75;0.75;;;;;18.96;44.69;100091.78;5064498;28;46334;-57
2022/11/18 15:53:47;;;;;;;;;1.00;1.00;;;;;18.96;44.76;100090.00;5079992;28;45098;-57
2022/11/18 15:56:19;;;;;;;;;0.00;0.00;;;;;18.94;44.40;100085.78;5080954;28;45308;-58
2022/11/18 15:59:00;;;;;;;;;2.00;1.00;;;;;18.96;44.25;100104.91;5069599;28;45261;-56
2022/11/18 16:01:31;;;;;;;;;0.25;0.25;;;;;18.96;44.57;100099.66;5074080;28;47407;-57
2022/11/18 16:03:56;;;;;;;;;2.00;1.00;;;;;18.94;44.28;100106.78;5072878;28;45369;-57
2022/11/18 16:06:23;;;;;;;;;2.25;1.00;;;;;18.96;44.22;100118.03;5069808;28;45365;-56
2022/11/18 16:08:48;;;;;;;;;2.00;1.00;;;;;18.96;44.70;100118.03;5061431;28;45560;-57
2022/11/18 16:14:04;;;;;;;;;0.00;0.00;;;;;18.94;44.10;100117.28;5080030;28;45288;-57
2022/11/18 16:16:30;;;;;;;;;0.25;0.25;;;;;18.93;44.03;100110.31;5085931;28;44636;-56
2022/11/18 16:18:57;;;;;;;;;1.00;1.00;;;;;18.92;44.72;100109.47;5070296;28;45607;-57
2022/11/18 16:21:23;;;;;;;;;2.25;0.75;;;;;18.94;44.72;100122.53;5061017;28;45284;-57
2022/11/18 16:23:49;;;;;;;;;0.00;0.00;;;;;18.93;44.17;100118.19;5062425;28;45748;-56
2022/11/18 16:26:14;;;;;;;;;0.00;0.00;;;;;18.92;44.46;100125.22;5062327;28;45369;-57
2022/11/18 16:28:39;;;;;;;;;3.25;0.75;;;;;18.90;44.03;100127.09;5060866;28;45311;-57
2022/11/18 16:33:49;;;;;;;;;1.00;1.00;;;;;18.92;44.01;100130.47;5061126;28;45350;-56
2022/11/18 16:36:15;;;;;;;;;0.50;0.00;;;;;18.93;44.66;100131.31;5061412;28;45363;-56
2022/11/18 16:38:40;;;;;;;;;1.00;1.00;;;;;18.89;44.18;100129.81;5060063;28;45535;-56
2022/11/18 16:41:30;;;;;;;;;1.50;0.00;;;;;18.92;44.02;100138.38;5065870;28;45355;-57
2022/11/18 16:43:51;;;;;;;;;1.00;1.00;;;;;18.91;44.30;100141.91;5070720;28;45437;-55
2022/11/18 16:46:16;;;;;;;;;1.00;0.00;;;;;18.91;44.22;100143.69;5060925;28;45305;-56
2022/11/18 16:48:41;;;;;;;;;1.00;1.00;;;;;18.90;44.11;100149.91;5060401;28;45453;-56
2022/11/18 16:51:19;;;;;;;;;2.00;0.33;;;;;18.90;44.52;100152.53;5058693;28;70371;-56
2022/11/18 16:53:55;;;;;;;;;0.00;0.00;;;;;18.89;44.36;100150.84;5059171;28;45229;-58
2022/11/18 16:56:23;;;;;;;;;0.00;0.00;;;;;18.91;44.71;100164.69;5059644;28;45401;-58
2022/11/18 16:58:49;;;;;;;;;0.00;0.00;;;;;18.91;44.19;100177.81;5061683;28;45453;-55
2022/11/18 17:01:14;;;;;;;;;1.75;0.00;;;;;18.89;44.14;100177.91;5065725;28;47068;-58
2022/11/18 17:03:40;;;;;;;;;2.50;0.00;;;;;18.88;44.11;100178.03;5072608;28;45299;-58
2022/11/18 17:06:06;;;;;;;;;1.50;0.75;;;;;18.90;44.37;100186.66;5070748;28;45352;-57
2022/11/18 17:08:33;;;;;;;;;1.25;0.00;;;;;18.88;44.67;100180.66;5073184;28;45410;-56
2022/11/18 17:11:04;;;;;;;;;1.00;1.00;;;;;18.89;44.30;100187.59;5058910;28;46679;-57
2022/11/18 17:13:29;;;;;;;;;1.00;1.00;;;;;18.89;44.48;100184.97;5058376;28;45863;-56
2022/11/18 17:15:54;;;;;;;;;0.00;0.00;;;;;18.90;44.54;100184.03;5059208;28;45444;-57
2022/11/18 17:18:20;;;;;;;;;1.00;1.00;;;;;18.89;44.46;100188.44;5058710;28;48044;-57
2022/11/18 17:20:45;;;;;;;;;1.00;1.00;;;;;18.89;44.12;100182.34;5058505;28;52528;-57
2022/11/18 17:23:10;;;;;;;;;1.67;1.00;;;;;18.88;44.39;100188.53;5057831;28;63110;-56
2022/11/18 17:25:38;;;;;;;;;1.00;1.00;;;;;18.89;44.07;100184.97;5059196;28;45322;-57
2022/11/18 17:28:04;;;;;;;;;3.25;0.25;;;;;18.88;44.65;100186.72;5059531;28;45289;-56
2022/11/18 17:30:29;;;;;;;;;3.00;0.00;;;;;18.86;44.36;100178.09;5060343;28;46098;-57
2022/11/18 17:32:55;;;;;;;;;1.75;0.50;;;;;18.88;43.98;100175.41;5059445;28;45219;-57
2022/11/18 17:35:20;;;;;;;;;1.75;0.00;;;;;18.87;44.47;100184.22;5064580;28;45248;-56
2022/11/18 17:37:45;;;;;;;;;0.00;0.00;;;;;18.82;44.36;100177.44;5071875;28;45300;-57
2022/11/18 17:40:11;;;;;;;;;1.00;1.00;;;;;18.88;44.14;100196.41;5057840;28;45399;-57
2022/11/18 17:42:37;;;;;;;;;1.00;1.00;;;;;18.88;44.32;100193.78;5059320;28;45288;-55
2022/11/18 17:45:03;;;;;;;;;1.50;0.00;;;;;18.88;44.55;100196.41;5061392;28;45149;-56
2022/11/18 17:47:28;;;;;;;;;3.00;1.00;;;;;18.85;43.96;100198.25;5060836;28;45504;-56
2022/11/18 17:49:54;;;;;;;;;1.00;1.00;;;;;18.82;44.20;100192.34;5061547;28;45534;-57
2022/11/18 17:52:19;;;;;;;;;1.00;0.00;;;;;18.85;44.15;100192.19;5066890;28;45216;-56
2022/11/18 17:54:44;;;;;;;;;1.00;1.00;;;;;18.88;44.31;100201.66;5071223;28;45332;-56
2022/11/18 17:57:10;;;;;;;;;0.75;0.75;;;;;18.88;44.11;100212.16;5070866;28;45381;-56
2022/11/18 17:59:35;;;;;;;;;3.00;1.00;;;;;18.82;44.67;100203.69;5073534;28;45359;-57
2022/11/18 18:02:00;;;;;;;;;1.00;1.00;;;;;18.84;44.70;100212.31;5067370;28;45224;-57
2022/11/18 18:04:26;;;;;;;;;1.00;1.00;;;;;18.86;44.15;100214.84;5065000;28;45284;-56
2022/11/18 18:06:52;;;;;;;;;1.00;1.00;;;;;18.84;44.20;100217.56;5062369;28;45406;-57
2022/11/18 18:09:18;;;;;;;;;3.25;1.50;;;;;18.84;44.15;100214.94;5060607;28;46482;-57
2022/11/18 18:11:44;;;;;;;;;2.00;1.00;;;;;18.84;44.36;100222.84;5058790;28;45291;-57
2022/11/18 18:14:11;;;;;;;;;1.00;1.00;;;;;18.83;44.58;100215.88;5057987;28;45247;-57
2022/11/18 18:16:37;;;;;;;;;1.00;1.00;;;;;18.85;44.07;100227.16;5057389;28;45281;-57
2022/11/18 18:19:04;;;;;;;;;0.50;0.50;;;;;18.87;44.73;100220.97;5058161;28;46307;-57
2022/11/18 18:21:31;;;;;;;;;1.25;1.00;;;;;18.83;44.35;100220.31;5058215;28;45749;-57
2022/11/18 18:23:57;;;;;;;;;2.75;2.75;;;;;18.84;44.16;100233.34;5058625;28;45575;-57
2022/11/18 18:26:22;;;;;;;;;1.00;1.00;;;;;18.85;44.30;100226.31;5057849;28;45482;-57
2022/11/18 18:28:48;;;;;;;;;1.50;1.00;;;;;18.85;44.55;100232.41;5057107;28;47454;-56
2022/11/18 18:31:15;;;;;;;;;1.00;1.00;;;;;18.84;44.13;100233.34;5061811;28;45504;-55
2022/11/18 18:33:43;;;;;;;;;2.75;1.25;;;;;18.83;44.13;100231.63;5066722;28;45307;-56
2022/11/18 18:36:15;;;;;;;;;1.00;1.00;;;;;18.83;44.28;100236.06;5065413;28;45390;-56
2022/11/18 18:38:41;;;;;;;;;2.00;2.00;;;;;18.85;44.13;100239.44;5059530;28;46967;-55
2022/11/18 18:41:18;;;;;;;;;0.00;0.00;;;;;18.83;44.22;100242.13;5058771;28;45449;-56
2022/11/18 18:43:44;;;;;;;;;2.00;2.00;;;;;18.83;44.50;100247.38;5058338;28;45296;-56
2022/11/18 18:46:27;;;;;;;;;2.00;2.00;;;;;18.83;44.07;100242.13;5057900;28;45257;-56
2022/11/18 18:48:58;;;;;;;;;2.00;2.00;;;;;18.82;44.37;100242.25;5058800;28;45349;-57
2022/11/18 18:51:26;;;;;;;;;3.50;1.75;;;;;18.84;44.05;100254.34;5068538;28;45334;-55
2022/11/18 18:53:51;;;;;;;;;1.50;1.50;;;;;18.83;44.58;100250.00;5076749;28;45203;-56
2022/11/18 18:56:17;;;;;;;;;2.25;1.00;;;;;18.83;44.35;100255.28;5066400;28;45192;-55
2022/11/18 18:58:42;;;;;;;;;3.00;2.00;;;;;18.83;44.36;100260.53;5059524;28;46617;-55
2022/11/18 19:01:13;;;;;;;;;4.00;2.00;;;;;18.82;44.30;100258.81;5059339;28;45341;-54
2022/11/18 19:03:39;;;;;;;;;2.00;2.00;;;;;18.81;44.59;100265.00;5058156;28;45417;-54
2022/11/18 19:06:14;;;;;;;;;2.50;1.75;;;;;18.82;44.15;100266.69;5058721;28;45255;-56
2022/11/18 19:08:40;;;;;;;;;3.00;2.25;;;;;18.82;44.49;100261.44;5070262;28;46095;-56
2022/11/18 19:11:06;;;;;;;;;4.00;1.25;;;;;18.82;44.46;100266.69;5061489;28;45212;-57
2022/11/18 19:13:31;;;;;;;;;2.00;2.00;;;;;18.80;44.13;100255.44;5060082;28;45300;-57
2022/11/18 19:15:56;;;;;;;;;2.50;2.00;;;;;18.82;44.31;100261.44;5058666;28;45492;-55
2022/11/18 19:18:23;;;;;;;;;5.00;2.50;;;;;18.82;44.02;100264.06;5057116;28;52302;-57
2022/11/18 19:20:48;;;;;;;;;2.25;2.25;;;;;18.78;44.08;100259.94;5056827;28;45848;-54
2022/11/18 19:23:16;;;;;;;;;4.75;2.00;;;;;18.82;44.08;100260.63;5056910;28;45300;-58
2022/11/18 19:25:42;;;;;;;;;1.75;1.75;;;;;18.81;44.07;100269.44;5060274;28;45314;-57
2022/11/18 19:28:10;;;;;;;;;4.00;3.00;;;;;18.80;43.98;100258.06;5068115;28;46987;-57
2022/11/18 19:30:35;;;;;;;;;3.00;3.00;;;;;18.81;44.37;100267.63;5078522;28;45348;-56
2022/11/18 19:33:02;;;;;;;;;4.00;2.75;;;;;18.81;43.92;100265.00;5064102;28;45274;-58
2022/11/18 19:35:28;;;;;;;;;2.00;2.00;;;;;18.80;44.39;100268.56;5069494;28;45243;-57
2022/11/18 19:37:53;;;;;;;;;4.75;3.00;;;;;18.80;44.55;100268.56;5063038;28;46157;-57
2022/11/18 19:40:18;;;;;;;;;3.00;3.00;;;;;18.80;44.16;100263.31;5063669;28;45382;-56
2022/11/18 19:42:44;;;;;;;;;3.00;3.00;;;;;18.81;44.23;100272.06;5061241;28;45354;-57
2022/11/18 19:45:12;;;;;;;;;6.25;3.00;;;;;18.80;44.17;100263.31;5059866;28;45438;-57
2022/11/18 19:47:38;;;;;;;;;4.50;3.00;;;;;18.81;44.30;100266.81;5062664;28;46739;-57
2022/11/18 19:50:05;;;;;;;;;3.00;3.00;;;;;18.79;44.37;100268.66;5059462;28;45369;-57
2022/11/18 19:52:31;;;;;;;;;3.00;2.50;;;;;18.79;44.28;100266.91;5059511;28;45178;-56
2022/11/18 19:54:56;;;;;;;;;5.00;3.00;;;;;18.81;44.10;100272.88;5059567;28;45240;-57
2022/11/18 19:57:23;;;;;;;;;4.00;3.75;;;;;18.78;44.40;100280.97;5059479;28;46233;-56
2022/11/18 19:59:48;;;;;;;;;3.00;3.00;;;;;18.79;44.01;100280.03;5059366;28;45351;-57
2022/11/18 20:02:13;;;;;;;;;3.00;3.00;;;;;18.79;44.10;100277.41;5060212;28;45488;-57
2022/11/18 20:04:39;;;;;;;;;3.75;3.75;;;;;18.79;44.01;100289.66;5060313;28;45472;-57
2022/11/18 20:07:04;;;;;;;;;4.50;3.00;;;;;18.80;44.41;100289.56;5060899;28;45491;-57
2022/11/18 20:09:29;;;;;;;;;3.25;3.00;;;;;18.78;44.16;100280.97;5063166;28;45287;-56
2022/11/18 20:11:55;;;;;;;;;5.00;4.00;;;;;18.79;43.88;100281.78;5064508;28;49177;-57
2022/11/18 20:14:21;;;;;;;;;4.25;4.25;;;;;18.80;44.08;100294.81;5064677;28;45310;-57
2022/11/18 20:16:46;;;;;;;;;3.00;3.00;;;;;18.79;44.53;100292.28;5060637;28;47032;-57
2022/11/18 20:19:12;;;;;;;;;5.00;3.00;;;;;18.77;43.97;100281.88;5059620;28;45432;-56
2022/11/18 20:21:39;;;;;;;;;4.00;3.25;;;;;18.79;44.31;100292.28;5060177;28;45291;-56
2022/11/18 20:24:06;;;;;;;;;6.25;4.50;;;;;18.78;44.02;100285.34;5077764;28;45446;-56
2022/11/18 20:26:36;;;;;;;;;4.25;4.00;;;;;18.78;43.96;100295.84;5082284;28;45090;-56
2022/11/18 20:29:03;;;;;;;;;2.25;2.25;;;;;18.75;44.17;100294.25;5077628;28;45830;-53
2022/11/18 20:31:28;;;;;;;;;3.25;3.25;;;;;18.78;44.09;100293.22;5059948;28;45453;-56
2022/11/18 20:33:55;;;;;;;;;5.00;5.00;;;;;18.78;44.26;100298.47;5059479;28;45566;-54
2022/11/18 20:36:32;;;;;;;;;7.75;3.25;;;;;18.76;43.97;100293.31;5059524;28;46497;-55